Mainsville, Pennsylvania
Current Conditions -  °F | °C
As of 4:53 PM on Wednesday 28 Jan 2015 (Local Time) from KRYT Reporting Station
Clear Clear  
Wind Chill: 23°   Ceiling: Unl
Heat Index: 28°   Visibility: 10mi
Dew Point:   Wind: 5mph
Humidity: 34%   Direction: NA
Pressure: 30.21"   Gusts: NA
Location:  40.0414°N, 77.4967°W
Report Text: KRYT 282153Z AUTO VRB04KT 10SM CLR M02/M16 A3021 RMK AO2 SLP255 T10221161 $
Loading
Personal Weather Stations






























Interactive Weather Map New forecast layout! Learn more

10-Day Weather Forecast

Advertisements
Track Severe Weather on mobile